| time (UTC) | temp F | wind direction | speed knots | gust knots | rain 1hr in | rain 24hr in | rain mn in | humidity % | barometer mb |
| 20260507011524 | 59 | 85 | 0.0 | 0.9 | 0.00 | 0.00 | 0.00 | 79 | 1009.6 |
| 20260507010025 | 59 | 331 | 0.0 | 1.7 | 0.00 | 0.00 | 0.00 | 79 | 1009.3 |
| 20260507004520 | 59 | 313 | 0.0 | 0.9 | 0.00 | 0.00 | 0.00 | 79 | 1009.2 |
| 20260507003021 | 59 | 91 | 0.0 | 0.9 | 0.00 | 0.00 | 0.00 | 77 | 1009.2 |
| 20260507001517 | 60 | 56 | 0.0 | 0.9 | 0.00 | 0.00 | 0.00 | 76 | 1008.9 |
| 20260507000015 | 60 | 35 | 0.0 | 0.9 | 0.00 | 0.00 | 0.00 | 77 | 1008.9 |
| 20260506234513 | 59 | 326 | 0.0 | 5.2 | 0.00 | 0.00 | 0.00 | 77 | 1008.6 |
| 20260506233013 | 59 | 8 | 0.0 | 3.5 | 0.00 | 0.00 | 0.00 | 78 | 1008.5 |
| 20260506231511 | 59 | 110 | 0.0 | 2.6 | 0.00 | 0.00 | 0.00 | 78 | 1008.5 |
| 20260506230019 | 59 | 148 | 0.0 | 3.5 | 0.00 | 0.00 | 0.00 | 78 | 1008.4 |
| 20260506224508 | 59 | 160 | 0.9 | 4.3 | 0.00 | 0.00 | 0.00 | 77 | 1008.2 |
| 20260506223007 | 59 | 328 | 0.9 | 3.5 | 0.00 | 0.00 | 0.00 | 77 | 1008.1 |
| 20260506221504 | 60 | 323 | 0.9 | 7.0 | 0.00 | 0.00 | 0.00 | 76 | 1008.4 |
| 20260506220133 | 60 | 65 | 0.0 | 3.5 | 0.00 | 0.00 | 0.00 | 76 | 1008.5 |
| 20260506214502 | 60 | 176 | 0.9 | 5.2 | 0.00 | 0.00 | 0.00 | 76 | 1008.2 |
| 20260506213111 | 60 | 18 | 0.9 | 5.2 | 0.00 | 0.00 | 0.00 | 76 | 1008.0 |
| 20260506211559 | 61 | 283 | 0.0 | 3.5 | 0.00 | 0.00 | 0.00 | 75 | 1008.0 |
| 20260506210105 | 61 | 64 | 0.9 | 7.0 | 0.00 | 0.00 | 0.00 | 74 | 1007.8 |
| 20260506204606 | 61 | 207 | 1.7 | 7.0 | 0.00 | 0.00 | 0.00 | 74 | 1007.4 |
| 20260506203056 | 61 | 314 | 0.0 | 4.3 | 0.00 | 0.00 | 0.00 | 74 | 1007.6 |
| 20260506201556 | 61 | 45 | 0.9 | 2.6 | 0.00 | 0.00 | 0.00 | 74 | 1007.9 |
| 20260506200055 | 61 | 226 | 0.0 | 6.1 | 0.00 | 0.00 | 0.00 | 74 | 1007.9 |
| 20260506194555 | 62 | 289 | 0.9 | 3.5 | 0.00 | 0.00 | 0.00 | 73 | 1007.9 |
| 20260506193055 | 62 | 127 | 0.9 | 3.5 | 0.00 | 0.00 | 0.00 | 72 | 1007.8 |
| 20260506191602 | 62 | 326 | 0.0 | 3.5 | 0.00 | 0.00 | 0.00 | 72 | 1007.8 |
| 20260506190055 | 63 | 320 | 0.0 | 3.5 | 0.00 | 0.00 | 0.00 | 71 | 1007.8 |
| 20260506184605 | 63 | 85 | 0.0 | 1.7 | 0.00 | 0.00 | 0.00 | 69 | 1007.5 |
| 20260506183050 | 64 | 300 | 0.0 | 3.5 | 0.00 | 0.00 | 0.00 | 68 | 1007.4 |
| 20260506181550 | 64 | 113 | 0.9 | 3.5 | 0.00 | 0.00 | 0.00 | 67 | 1007.1 |
| 20260506180051 | 65 | 68 | 0.9 | 5.2 | 0.00 | 0.00 | 0.00 | 66 | 1007.1 |
| 20260506174549 | 66 | 330 | 0.0 | 4.3 | 0.00 | 0.00 | 0.00 | 65 | 1006.9 |
| 20260506173049 | 66 | 15 | 0.9 | 6.1 | 0.00 | 0.00 | 0.00 | 63 | 1007.0 |
| 20260506171557 | 67 | 16 | 1.7 | 5.2 | 0.00 | 0.00 | 0.00 | 61 | 1006.9 |
| 20260506170052 | 68 | 1 | 0.9 | 8.7 | 0.00 | 0.00 | 0.00 | 60 | 1006.8 |
| 20260506164548 | 68 | 150 | 2.6 | 6.1 | 0.00 | 0.00 | 0.00 | 59 | 1007.0 |
| 20260506163044 | 69 | 340 | 1.7 | 6.1 | 0.00 | 0.00 | 0.00 | 58 | 1007.1 |
| 20260506161545 | 69 | 340 | 1.7 | 7.8 | 0.00 | 0.00 | 0.00 | 58 | 1007.3 |
| 20260506160057 | 70 | 40 | 0.9 | 4.3 | 0.00 | 0.00 | 0.00 | 57 | 1007.4 |
| 20260506154541 | 71 | 181 | 1.7 | 11.3 | 0.00 | 0.00 | 0.00 | 54 | 1007.4 |
| 20260506153040 | 72 | 41 | 0.9 | 5.2 | 0.00 | 0.00 | 0.00 | 55 | 1007.2 |
| 20260506151542 | 73 | 27 | 0.9 | 4.3 | 0.00 | 0.00 | 0.00 | 52 | 1007.2 |
| 20260506150038 | 72 | 49 | 0.0 | 9.6 | 0.00 | 0.00 | 0.00 | 52 | 1007.3 |
| 20260506144551 | 72 | 101 | 1.7 | 6.1 | 0.00 | 0.00 | 0.00 | 51 | 1007.4 |
| 20260506143036 | 73 | 108 | 1.7 | 7.0 | 0.00 | 0.00 | 0.00 | 51 | 1007.5 |
| 20260506141535 | 73 | 201 | 1.7 | 7.8 | 0.00 | 0.00 | 0.00 | 50 | 1007.6 |
| 20260506140035 | 73 | 30 | 1.7 | 6.1 | 0.00 | 0.00 | 0.00 | 51 | 1007.5 |
| 20260506134534 | 74 | 262 | 3.5 | 8.7 | 0.00 | 0.00 | 0.00 | 49 | 1007.6 |
| 20260506133034 | 74 | 276 | 1.7 | 7.0 | 0.00 | 0.00 | 0.00 | 50 | 1007.7 |
| 20260506131539 | 73 | 345 | 1.7 | 7.0 | 0.00 | 0.00 | 0.00 | 47 | 1007.7 |
| 20260506130032 | 74 | 85 | 1.7 | 5.2 | 0.00 | 0.00 | 0.00 | 49 | 1007.7 |
| 20260506124533 | 75 | 269 | 1.7 | 7.0 | 0.00 | 0.00 | 0.00 | 49 | 1007.7 |
| 20260506123029 | 75 | 283 | 1.7 | 7.0 | 0.00 | 0.00 | 0.00 | 47 | 1007.4 |
| 20260506121527 | 75 | 21 | 0.9 | 6.1 | 0.00 | 0.00 | 0.00 | 47 | 1007.5 |
| 20260506120027 | 75 | 3 | 3.5 | 7.8 | 0.00 | 0.00 | 0.00 | 49 | 1007.7 |
| 20260506114535 | 73 | 40 | 0.9 | 4.3 | 0.00 | 0.00 | 0.00 | 51 | 1007.7 |
| 20260506113025 | 73 | 359 | 0.9 | 4.3 | 0.00 | 0.00 | 0.00 | 51 | 1008.1 |
| 20260506111525 | 75 | 120 | 1.7 | 4.3 | 0.00 | 0.00 | 0.00 | 46 | 1008.2 |
| 20260506110027 | 74 | 51 | 0.9 | 4.3 | 0.00 | 0.00 | 0.00 | 47 | 1008.4 |
| 20260506104523 | 75 | 11 | 1.7 | 5.2 | 0.00 | 0.00 | 0.00 | 45 | 1008.5 |
| 20260506103020 | 75 | 309 | 0.9 | 6.1 | 0.00 | 0.00 | 0.00 | 48 | 1008.4 |
| 20260506101520 | 74 | 100 | 0.9 | 4.3 | 0.00 | 0.00 | 0.00 | 49 | 1008.6 |
| 20260506100023 | 74 | 91 | 2.6 | 7.0 | 0.00 | 0.00 | 0.00 | 49 | 1009.0 |
| 20260506094516 | 73 | 127 | 0.9 | 5.2 | 0.00 | 0.00 | 0.00 | 51 | 1009.1 |
| 20260506093014 | 73 | 60 | 0.9 | 7.0 | 0.00 | 0.00 | 0.00 | 52 | 1009.2 |
| 20260506091515 | 73 | 338 | 0.9 | 4.3 | 0.00 | 0.00 | 0.00 | 50 | 1009.4 |
| 20260506090009 | 72 | 153 | 1.7 | 6.1 | 0.00 | 0.00 | 0.00 | 54 | 1009.3 |
| 20260506084508 | 71 | 57 | 0.9 | 8.7 | 0.00 | 0.00 | 0.00 | 55 | 1009.4 |
| 20260506083106 | 70 | 65 | 0.0 | 5.2 | 0.00 | 0.00 | 0.00 | 56 | 1009.2 |
| 20260506081507 | 70 | 138 | 1.7 | 6.1 | 0.00 | 0.00 | 0.00 | 55 | 1009.2 |
| 20260506073100 | 69 | 136 | 0.9 | 3.5 | 0.00 | 0.00 | 0.00 | 58 | 1009.2 |
| 20260506071601 | 69 | 140 | 0.0 | 4.3 | 0.00 | 0.00 | 0.00 | 60 | 1009.3 |
| 20260506061540 | 61 | 43 | 0.0 | 0.0 | 0.00 | 0.00 | 0.00 | 74 | 1009.6 |
| 20260506044535 | 52 | 101 | 0.0 | 0.9 | 0.00 | 0.00 | 0.00 | 91 | 1009.2 |
| 20260506043026 | 51 | 100 | 0.0 | 0.0 | 0.00 | 0.00 | 0.00 | 92 | 1009.3 |
| 20260506041525 | 50 | 98 | 0.0 | 0.0 | 0.00 | 0.00 | 0.00 | 92 | 1009.3 |
| 20260506040023 | 50 | 97 | 0.0 | 0.9 | 0.00 | 0.00 | 0.00 | 92 | 1009.1 |
| 20260506034521 | 51 | 98 | 0.0 | 0.0 | 0.00 | 0.00 | 0.00 | 91 | 1009.1 |
| 20260506033026 | 51 | 64 | 0.0 | 0.0 | 0.00 | 0.00 | 0.00 | 90 | 1009.0 |
| 20260506031528 | 51 | 63 | 0.0 | 0.0 | 0.00 | 0.00 | 0.00 | 90 | 1009.0 |
| 20260506030038 | 52 | 134 | 0.0 | 0.9 | 0.00 | 0.00 | 0.00 | 89 | 1008.8 |
| 20260506024521 | 52 | 134 | 0.0 | 0.0 | 0.00 | 0.00 | 0.00 | 89 | 1008.6 |
| 20260506023010 | 52 | 134 | 0.0 | 0.0 | 0.00 | 0.00 | 0.00 | 87 | 1008.6 |
| 20260506021508 | 53 | 134 | 0.0 | 0.0 | 0.00 | 0.00 | 0.00 | 86 | 1008.5 |
| 20260506020003 | 54 | 134 | 0.0 | 0.0 | 0.00 | 0.00 | 0.00 | 84 | 1008.3 |
| 20260506014501 | 54 | 134 | 0.0 | 0.9 | 0.00 | 0.00 | 0.00 | 83 | 1008.2 |
| 20260506013103 | 55 | 159 | 0.0 | 1.7 | 0.00 | 0.00 | 0.00 | 82 | 1008.1 |